EYVI/VNO METAR and TAF weather

Enter ICAO airport designator
Station Type Date Time Source
EYVI METAR 2019/10/16 19:50 UTC NOAA

EYVI 161950Z 19008KT 9999 BKN045 15/11 Q1010 NOSIG


Station Type Date Time Source
EYVI Decoded METAR 2019/10/16 19:50 UTC NOAA

Vilnius, Lithuania (EYVI) 54-38N 025-06E 156M
Oct 16, 2019 - 03:50 PM EDT / 2019.10.16 1950 UTC
Wind: from the S (190 degrees) at 9 MPH (8 KT):0
Visibility: greater than 7 mile(s):0
Sky conditions: mostly cloudy
Temperature: 59 F (15 C)
Dew Point: 51 F (11 C)
Relative Humidity: 76%
Pressure (altimeter): 29.83 in. Hg (1010 hPa)
ob: EYVI 161950Z 19008KT 9999 BKN045 15/11 Q1010 NOSIG
cycle: 20

Station Type Date Time Source
EYVI TAF 2019/10/16 18:12 UTC NOAA

TAF TAF EYVI 161708Z 1618/1718 17010KT 9000 SCT010 BKN030
BECMG 1622/1624 23014KT
BECMG 1703/1705 4500 RA OVC004
TEMPO 1706/1710 1500 BR
BECMG 1710/1711 9000 BKN015

Example: see airport list